sensor_id;sensor_type;location;lat;lon;timestamp;P1;durP1;ratioP1;P2;durP2;ratioP2
40807;SDS011;26523;52.504;13.498;2023-02-03T00:01:15;9.43;;;3.13;;
40807;SDS011;26523;52.504;13.498;2023-02-03T00:03:41;10.52;;;2.13;;
40807;SDS011;26523;52.504;13.498;2023-02-03T00:06:07;5.43;;;2.40;;
40807;SDS011;26523;52.504;13.498;2023-02-03T00:08:32;5.32;;;1.77;;
40807;SDS011;26523;52.504;13.498;2023-02-03T00:10:59;4.47;;;1.92;;
40807;SDS011;26523;52.504;13.498;2023-02-03T00:13:25;8.05;;;2.05;;
40807;SDS011;26523;52.504;13.498;2023-02-03T00:15:51;2.60;;;1.38;;
40807;SDS011;26523;52.504;13.498;2023-02-03T00:18:16;7.93;;;1.90;;
40807;SDS011;26523;52.504;13.498;2023-02-03T00:20:42;7.47;;;2.30;;
40807;SDS011;26523;52.504;13.498;2023-02-03T00:23:09;4.53;;;1.88;;
40807;SDS011;26523;52.504;13.498;2023-02-03T00:25:36;7.13;;;2.05;;
40807;SDS011;26523;52.504;13.498;2023-02-03T00:28:03;3.72;;;1.20;;
40807;SDS011;26523;52.504;13.498;2023-02-03T00:30:29;4.65;;;1.83;;
40807;SDS011;26523;52.504;13.498;2023-02-03T00:32:55;3.38;;;1.67;;
40807;SDS011;26523;52.504;13.498;2023-02-03T00:35:21;4.75;;;1.98;;
40807;SDS011;26523;52.504;13.498;2023-02-03T00:37:53;3.50;;;1.63;;
40807;SDS011;26523;52.504;13.498;2023-02-03T00:40:20;4.57;;;2.13;;
40807;SDS011;26523;52.504;13.498;2023-02-03T00:42:49;5.63;;;1.92;;
40807;SDS011;26523;52.504;13.498;2023-02-03T00:45:15;3.58;;;1.58;;
40807;SDS011;26523;52.504;13.498;2023-02-03T00:47:41;3.60;;;1.58;;
40807;SDS011;26523;52.504;13.498;2023-02-03T00:50:07;19.77;;;3.13;;
40807;SDS011;26523;52.504;13.498;2023-02-03T00:52:34;3.35;;;1.42;;
40807;SDS011;26523;52.504;13.498;2023-02-03T00:55:00;6.60;;;2.05;;
40807;SDS011;26523;52.504;13.498;2023-02-03T00:57:25;3.30;;;1.60;;
40807;SDS011;26523;52.504;13.498;2023-02-03T00:59:51;5.18;;;2.25;;
40807;SDS011;26523;52.504;13.498;2023-02-03T01:02:18;6.25;;;1.90;;
40807;SDS011;26523;52.504;13.498;2023-02-03T01:04:43;4.75;;;2.60;;
40807;SDS011;26523;52.504;13.498;2023-02-03T01:07:09;2.90;;;1.55;;
40807;SDS011;26523;52.504;13.498;2023-02-03T01:09:35;6.95;;;2.60;;
40807;SDS011;26523;52.504;13.498;2023-02-03T01:12:02;3.65;;;1.52;;
40807;SDS011;26523;52.504;13.498;2023-02-03T01:14:28;4.03;;;2.05;;
40807;SDS011;26523;52.504;13.498;2023-02-03T01:16:54;4.55;;;1.88;;
40807;SDS011;26523;52.504;13.498;2023-02-03T01:19:19;12.05;;;2.50;;
40807;SDS011;26523;52.504;13.498;2023-02-03T01:21:46;9.27;;;2.28;;
40807;SDS011;26523;52.504;13.498;2023-02-03T01:24:11;3.88;;;1.48;;
40807;SDS011;26523;52.504;13.498;2023-02-03T01:26:39;8.02;;;1.92;;
40807;SDS011;26523;52.504;13.498;2023-02-03T01:29:06;4.20;;;1.88;;
40807;SDS011;26523;52.504;13.498;2023-02-03T01:31:33;9.90;;;2.00;;
40807;SDS011;26523;52.504;13.498;2023-02-03T01:34:03;6.53;;;2.08;;
40807;SDS011;26523;52.504;13.498;2023-02-03T01:36:30;8.70;;;3.05;;
40807;SDS011;26523;52.504;13.498;2023-02-03T01:38:57;8.18;;;2.50;;
40807;SDS011;26523;52.504;13.498;2023-02-03T01:41:25;7.35;;;2.92;;
40807;SDS011;26523;52.504;13.498;2023-02-03T01:43:53;12.98;;;2.63;;
40807;SDS011;26523;52.504;13.498;2023-02-03T01:49:07;6.30;;;2.25;;
40807;SDS011;26523;52.504;13.498;2023-02-03T01:51:37;7.28;;;3.47;;
40807;SDS011;26523;52.504;13.498;2023-02-03T01:54:06;8.07;;;3.42;;
40807;SDS011;26523;52.504;13.498;2023-02-03T01:56:35;13.15;;;2.75;;
40807;SDS011;26523;52.504;13.498;2023-02-03T01:59:04;6.65;;;2.97;;
40807;SDS011;26523;52.504;13.498;2023-02-03T02:01:30;5.85;;;3.00;;
40807;SDS011;26523;52.504;13.498;2023-02-03T02:03:57;5.35;;;2.45;;
40807;SDS011;26523;52.504;13.498;2023-02-03T02:06:25;3.67;;;1.95;;
40807;SDS011;26523;52.504;13.498;2023-02-03T02:08:52;4.05;;;2.25;;
40807;SDS011;26523;52.504;13.498;2023-02-03T02:11:20;4.30;;;1.92;;
40807;SDS011;26523;52.504;13.498;2023-02-03T02:13:46;7.57;;;2.38;;
40807;SDS011;26523;52.504;13.498;2023-02-03T02:16:18;8.00;;;2.05;;
40807;SDS011;26523;52.504;13.498;2023-02-03T02:19:33;6.40;;;2.67;;
40807;SDS011;26523;52.504;13.498;2023-02-03T02:27:11;7.13;;;2.25;;
40807;SDS011;26523;52.504;13.498;2023-02-03T02:38:01;6.32;;;2.13;;
40807;SDS011;26523;52.504;13.498;2023-02-03T02:40:39;2.97;;;1.85;;
40807;SDS011;26523;52.504;13.498;2023-02-03T02:45:47;6.70;;;2.63;;
40807;SDS011;26523;52.504;13.498;2023-02-03T02:53:16;5.00;;;1.73;;
40807;SDS011;26523;52.504;13.498;2023-02-03T02:55:45;2.42;;;1.65;;
40807;SDS011;26523;52.504;13.498;2023-02-03T02:58:12;4.22;;;1.48;;
40807;SDS011;26523;52.504;13.498;2023-02-03T03:00:40;3.78;;;1.70;;
40807;SDS011;26523;52.504;13.498;2023-02-03T03:03:12;3.55;;;1.50;;
40807;SDS011;26523;52.504;13.498;2023-02-03T03:05:47;4.55;;;1.35;;
40807;SDS011;26523;52.504;13.498;2023-02-03T03:08:20;3.65;;;1.60;;
40807;SDS011;26523;52.504;13.498;2023-02-03T03:10:59;3.67;;;1.42;;
40807;SDS011;26523;52.504;13.498;2023-02-03T03:13:28;2.42;;;1.38;;
40807;SDS011;26523;52.504;13.498;2023-02-03T03:16:02;2.53;;;1.20;;
40807;SDS011;26523;52.504;13.498;2023-02-03T03:18:30;2.08;;;1.02;;
40807;SDS011;26523;52.504;13.498;2023-02-03T03:21:00;2.20;;;1.08;;
40807;SDS011;26523;52.504;13.498;2023-02-03T03:23:37;3.72;;;1.38;;
40807;SDS011;26523;52.504;13.498;2023-02-03T03:28:41;1.60;;;1.13;;
40807;SDS011;26523;52.504;13.498;2023-02-03T03:31:12;3.28;;;1.98;;
40807;SDS011;26523;52.504;13.498;2023-02-03T03:33:39;1.60;;;1.10;;
40807;SDS011;26523;52.504;13.498;2023-02-03T03:36:13;3.35;;;1.17;;
40807;SDS011;26523;52.504;13.498;2023-02-03T03:38:54;1.48;;;1.00;;
40807;SDS011;26523;52.504;13.498;2023-02-03T03:41:24;3.60;;;1.50;;
40807;SDS011;26523;52.504;13.498;2023-02-03T03:44:00;2.22;;;1.38;;
40807;SDS011;26523;52.504;13.498;2023-02-03T03:46:32;1.17;;;0.88;;
40807;SDS011;26523;52.504;13.498;2023-02-03T03:49:05;1.98;;;1.08;;
40807;SDS011;26523;52.504;13.498;2023-02-03T03:51:47;1.88;;;1.27;;
40807;SDS011;26523;52.504;13.498;2023-02-03T03:54:21;4.22;;;1.50;;
40807;SDS011;26523;52.504;13.498;2023-02-03T03:56:51;2.55;;;1.10;;
40807;SDS011;26523;52.504;13.498;2023-02-03T03:59:22;1.65;;;1.13;;
40807;SDS011;26523;52.504;13.498;2023-02-03T04:01:50;1.00;;;0.65;;
40807;SDS011;26523;52.504;13.498;2023-02-03T04:04:16;4.63;;;0.98;;
40807;SDS011;26523;52.504;13.498;2023-02-03T04:06:42;3.03;;;1.00;;
40807;SDS011;26523;52.504;13.498;2023-02-03T04:09:08;0.95;;;0.75;;
40807;SDS011;26523;52.504;13.498;2023-02-03T04:11:33;1.83;;;1.15;;
40807;SDS011;26523;52.504;13.498;2023-02-03T04:14:18;1.67;;;1.25;;
40807;SDS011;26523;52.504;13.498;2023-02-03T04:16:43;1.58;;;0.95;;
40807;SDS011;26523;52.504;13.498;2023-02-03T04:19:09;1.63;;;1.05;;
40807;SDS011;26523;52.504;13.498;2023-02-03T04:21:34;4.07;;;1.17;;
40807;SDS011;26523;52.504;13.498;2023-02-03T04:24:00;2.85;;;1.65;;
40807;SDS011;26523;52.504;13.498;2023-02-03T04:26:26;4.43;;;1.50;;
40807;SDS011;26523;52.504;13.498;2023-02-03T04:28:51;1.70;;;1.30;;
40807;SDS011;26523;52.504;13.498;2023-02-03T04:31:17;3.55;;;1.30;;
40807;SDS011;26523;52.504;13.498;2023-02-03T04:33:43;2.65;;;1.23;;
40807;SDS011;26523;52.504;13.498;2023-02-03T04:36:08;4.47;;;1.42;;
40807;SDS011;26523;52.504;13.498;2023-02-03T04:38:34;2.63;;;1.23;;
40807;SDS011;26523;52.504;13.498;2023-02-03T04:41:00;1.85;;;1.05;;
40807;SDS011;26523;52.504;13.498;2023-02-03T04:43:26;3.70;;;1.58;;
40807;SDS011;26523;52.504;13.498;2023-02-03T04:45:51;6.53;;;2.25;;
40807;SDS011;26523;52.504;13.498;2023-02-03T04:48:17;4.97;;;2.08;;
40807;SDS011;26523;52.504;13.498;2023-02-03T04:50:43;4.00;;;2.17;;
40807;SDS011;26523;52.504;13.498;2023-02-03T04:53:08;3.95;;;2.30;;
40807;SDS011;26523;52.504;13.498;2023-02-03T04:55:34;6.20;;;2.33;;
40807;SDS011;26523;52.504;13.498;2023-02-03T04:58:00;5.22;;;2.65;;
40807;SDS011;26523;52.504;13.498;2023-02-03T05:00:27;4.45;;;2.58;;
40807;SDS011;26523;52.504;13.498;2023-02-03T05:02:53;8.45;;;2.47;;
40807;SDS011;26523;52.504;13.498;2023-02-03T05:05:19;6.95;;;2.85;;
40807;SDS011;26523;52.504;13.498;2023-02-03T05:07:45;6.53;;;2.97;;
40807;SDS011;26523;52.504;13.498;2023-02-03T05:10:10;7.82;;;3.78;;
40807;SDS011;26523;52.504;13.498;2023-02-03T05:12:36;6.53;;;3.72;;
40807;SDS011;26523;52.504;13.498;2023-02-03T05:15:02;5.20;;;3.00;;
40807;SDS011;26523;52.504;13.498;2023-02-03T05:17:27;6.30;;;2.88;;
40807;SDS011;26523;52.504;13.498;2023-02-03T05:19:53;5.88;;;3.17;;
40807;SDS011;26523;52.504;13.498;2023-02-03T05:22:19;10.98;;;4.90;;
40807;SDS011;26523;52.504;13.498;2023-02-03T05:24:44;9.73;;;3.58;;
40807;SDS011;26523;52.504;13.498;2023-02-03T05:27:10;11.70;;;4.25;;
40807;SDS011;26523;52.504;13.498;2023-02-03T05:29:36;9.40;;;4.03;;
40807;SDS011;26523;52.504;13.498;2023-02-03T05:32:02;15.57;;;5.45;;
40807;SDS011;26523;52.504;13.498;2023-02-03T05:34:28;12.05;;;4.55;;
40807;SDS011;26523;52.504;13.498;2023-02-03T05:36:54;10.00;;;4.38;;
40807;SDS011;26523;52.504;13.498;2023-02-03T05:39:19;8.88;;;4.20;;
40807;SDS011;26523;52.504;13.498;2023-02-03T05:41:45;10.70;;;4.38;;
40807;SDS011;26523;52.504;13.498;2023-02-03T05:44:17;9.77;;;5.13;;
40807;SDS011;26523;52.504;13.498;2023-02-03T05:46:44;10.43;;;4.43;;
40807;SDS011;26523;52.504;13.498;2023-02-03T05:49:10;10.90;;;4.63;;
40807;SDS011;26523;52.504;13.498;2023-02-03T05:51:36;11.27;;;5.57;;
40807;SDS011;26523;52.504;13.498;2023-02-03T05:54:02;8.90;;;3.95;;
40807;SDS011;26523;52.504;13.498;2023-02-03T05:56:28;19.20;;;5.78;;
40807;SDS011;26523;52.504;13.498;2023-02-03T05:58:53;15.45;;;5.60;;
40807;SDS011;26523;52.504;13.498;2023-02-03T06:01:19;10.98;;;4.43;;
40807;SDS011;26523;52.504;13.498;2023-02-03T06:03:45;18.40;;;6.28;;
40807;SDS011;26523;52.504;13.498;2023-02-03T06:06:11;14.00;;;5.88;;
40807;SDS011;26523;52.504;13.498;2023-02-03T06:08:37;14.98;;;6.10;;
40807;SDS011;26523;52.504;13.498;2023-02-03T06:11:03;15.50;;;6.50;;
40807;SDS011;26523;52.504;13.498;2023-02-03T06:13:29;16.00;;;6.50;;
40807;SDS011;26523;52.504;13.498;2023-02-03T06:15:55;17.48;;;7.18;;
40807;SDS011;26523;52.504;13.498;2023-02-03T06:18:21;14.57;;;6.72;;
40807;SDS011;26523;52.504;13.498;2023-02-03T06:20:47;15.20;;;6.20;;
40807;SDS011;26523;52.504;13.498;2023-02-03T06:23:13;16.70;;;7.00;;
40807;SDS011;26523;52.504;13.498;2023-02-03T06:25:41;15.57;;;7.28;;
40807;SDS011;26523;52.504;13.498;2023-02-03T06:28:07;22.60;;;7.07;;
40807;SDS011;26523;52.504;13.498;2023-02-03T06:30:33;14.50;;;6.18;;
40807;SDS011;26523;52.504;13.498;2023-02-03T06:32:58;13.65;;;6.70;;
40807;SDS011;26523;52.504;13.498;2023-02-03T06:35:24;15.45;;;5.72;;
40807;SDS011;26523;52.504;13.498;2023-02-03T06:37:50;15.68;;;5.90;;
40807;SDS011;26523;52.504;13.498;2023-02-03T06:40:15;17.80;;;6.68;;
40807;SDS011;26523;52.504;13.498;2023-02-03T06:42:43;19.10;;;7.95;;
40807;SDS011;26523;52.504;13.498;2023-02-03T06:45:13;15.38;;;6.07;;
40807;SDS011;26523;52.504;13.498;2023-02-03T06:47:43;18.42;;;6.35;;
40807;SDS011;26523;52.504;13.498;2023-02-03T06:50:10;14.48;;;6.28;;
40807;SDS011;26523;52.504;13.498;2023-02-03T06:52:37;20.00;;;7.45;;
40807;SDS011;26523;52.504;13.498;2023-02-03T06:55:04;16.23;;;7.07;;
40807;SDS011;26523;52.504;13.498;2023-02-03T06:57:30;15.10;;;7.05;;
40807;SDS011;26523;52.504;13.498;2023-02-03T06:59:56;16.38;;;6.75;;
40807;SDS011;26523;52.504;13.498;2023-02-03T07:02:22;13.07;;;6.63;;
40807;SDS011;26523;52.504;13.498;2023-02-03T07:04:48;12.30;;;6.75;;
40807;SDS011;26523;52.504;13.498;2023-02-03T07:07:13;15.35;;;6.53;;
40807;SDS011;26523;52.504;13.498;2023-02-03T07:09:39;14.45;;;6.45;;
40807;SDS011;26523;52.504;13.498;2023-02-03T07:12:05;17.15;;;6.53;;
40807;SDS011;26523;52.504;13.498;2023-02-03T07:14:32;17.92;;;6.65;;
40807;SDS011;26523;52.504;13.498;2023-02-03T07:17:00;25.75;;;6.78;;
40807;SDS011;26523;52.504;13.498;2023-02-03T07:19:29;15.45;;;6.95;;
40807;SDS011;26523;52.504;13.498;2023-02-03T07:21:54;12.30;;;5.85;;
40807;SDS011;26523;52.504;13.498;2023-02-03T07:24:20;17.48;;;7.07;;
40807;SDS011;26523;52.504;13.498;2023-02-03T07:26:46;13.38;;;6.57;;
40807;SDS011;26523;52.504;13.498;2023-02-03T07:29:11;12.60;;;5.97;;
40807;SDS011;26523;52.504;13.498;2023-02-03T07:31:37;14.13;;;5.43;;
40807;SDS011;26523;52.504;13.498;2023-02-03T07:34:03;18.00;;;6.65;;
40807;SDS011;26523;52.504;13.498;2023-02-03T07:36:30;19.08;;;6.97;;
40807;SDS011;26523;52.504;13.498;2023-02-03T07:38:56;20.50;;;6.32;;
40807;SDS011;26523;52.504;13.498;2023-02-03T07:41:22;11.10;;;5.28;;
40807;SDS011;26523;52.504;13.498;2023-02-03T07:43:48;24.92;;;7.95;;
40807;SDS011;26523;52.504;13.498;2023-02-03T07:46:14;9.20;;;4.65;;
40807;SDS011;26523;52.504;13.498;2023-02-03T07:48:39;10.65;;;5.13;;
40807;SDS011;26523;52.504;13.498;2023-02-03T07:51:05;11.18;;;5.90;;
40807;SDS011;26523;52.504;13.498;2023-02-03T07:53:31;15.40;;;6.70;;
40807;SDS011;26523;52.504;13.498;2023-02-03T07:56:00;9.95;;;5.10;;
40807;SDS011;26523;52.504;13.498;2023-02-03T07:58:27;12.35;;;5.50;;
40807;SDS011;26523;52.504;13.498;2023-02-03T08:00:53;13.20;;;5.13;;
40807;SDS011;26523;52.504;13.498;2023-02-03T08:03:18;20.75;;;5.32;;
40807;SDS011;26523;52.504;13.498;2023-02-03T08:05:44;8.68;;;4.90;;
40807;SDS011;26523;52.504;13.498;2023-02-03T08:08:11;12.75;;;5.70;;
40807;SDS011;26523;52.504;13.498;2023-02-03T08:10:36;7.07;;;3.78;;
40807;SDS011;26523;52.504;13.498;2023-02-03T08:13:02;7.55;;;4.05;;
40807;SDS011;26523;52.504;13.498;2023-02-03T08:15:28;8.93;;;4.13;;
40807;SDS011;26523;52.504;13.498;2023-02-03T08:17:53;12.48;;;4.28;;
40807;SDS011;26523;52.504;13.498;2023-02-03T08:20:19;10.32;;;4.72;;
40807;SDS011;26523;52.504;13.498;2023-02-03T08:22:46;9.48;;;3.72;;
40807;SDS011;26523;52.504;13.498;2023-02-03T08:25:11;8.32;;;4.18;;
40807;SDS011;26523;52.504;13.498;2023-02-03T08:27:37;5.88;;;3.10;;
40807;SDS011;26523;52.504;13.498;2023-02-03T08:30:04;7.55;;;3.88;;
40807;SDS011;26523;52.504;13.498;2023-02-03T08:32:31;8.15;;;3.53;;
40807;SDS011;26523;52.504;13.498;2023-02-03T08:34:57;6.82;;;3.75;;
40807;SDS011;26523;52.504;13.498;2023-02-03T08:37:23;7.07;;;3.30;;
40807;SDS011;26523;52.504;13.498;2023-02-03T08:39:49;12.30;;;4.00;;
40807;SDS011;26523;52.504;13.498;2023-02-03T08:42:16;11.55;;;3.50;;
40807;SDS011;26523;52.504;13.498;2023-02-03T08:44:41;7.00;;;2.97;;
40807;SDS011;26523;52.504;13.498;2023-02-03T08:47:08;6.03;;;3.22;;
40807;SDS011;26523;52.504;13.498;2023-02-03T08:49:35;5.20;;;2.60;;
40807;SDS011;26523;52.504;13.498;2023-02-03T08:52:03;5.88;;;3.00;;
40807;SDS011;26523;52.504;13.498;2023-02-03T08:54:30;11.23;;;3.80;;
40807;SDS011;26523;52.504;13.498;2023-02-03T08:56:57;5.80;;;2.97;;
40807;SDS011;26523;52.504;13.498;2023-02-03T08:59:23;6.47;;;3.17;;
40807;SDS011;26523;52.504;13.498;2023-02-03T09:01:49;5.88;;;3.17;;
40807;SDS011;26523;52.504;13.498;2023-02-03T09:04:15;7.07;;;2.88;;
40807;SDS011;26523;52.504;13.498;2023-02-03T09:06:43;7.63;;;3.20;;
40807;SDS011;26523;52.504;13.498;2023-02-03T09:09:11;5.85;;;2.90;;
40807;SDS011;26523;52.504;13.498;2023-02-03T09:11:37;7.20;;;3.08;;
40807;SDS011;26523;52.504;13.498;2023-02-03T09:14:05;5.53;;;2.50;;
40807;SDS011;26523;52.504;13.498;2023-02-03T09:16:31;5.63;;;2.55;;
40807;SDS011;26523;52.504;13.498;2023-02-03T09:18:57;3.88;;;2.20;;
40807;SDS011;26523;52.504;13.498;2023-02-03T09:21:22;7.07;;;2.72;;
40807;SDS011;26523;52.504;13.498;2023-02-03T09:23:48;5.68;;;2.85;;
40807;SDS011;26523;52.504;13.498;2023-02-03T09:26:14;4.63;;;2.67;;
40807;SDS011;26523;52.504;13.498;2023-02-03T09:28:40;5.57;;;2.45;;
40807;SDS011;26523;52.504;13.498;2023-02-03T09:31:07;4.82;;;2.30;;
40807;SDS011;26523;52.504;13.498;2023-02-03T09:33:35;4.68;;;2.42;;
40807;SDS011;26523;52.504;13.498;2023-02-03T09:36:01;6.25;;;2.47;;
40807;SDS011;26523;52.504;13.498;2023-02-03T09:38:28;5.07;;;2.40;;
40807;SDS011;26523;52.504;13.498;2023-02-03T09:40:58;7.15;;;2.80;;
40807;SDS011;26523;52.504;13.498;2023-02-03T09:43:45;5.28;;;2.22;;
40807;SDS011;26523;52.504;13.498;2023-02-03T09:46:24;6.50;;;2.50;;
40807;SDS011;26523;52.504;13.498;2023-02-03T09:48:53;3.85;;;1.80;;
40807;SDS011;26523;52.504;13.498;2023-02-03T09:51:24;3.25;;;2.00;;
40807;SDS011;26523;52.504;13.498;2023-02-03T09:54:00;4.05;;;2.15;;
40807;SDS011;26523;52.504;13.498;2023-02-03T09:56:35;2.85;;;1.77;;
40807;SDS011;26523;52.504;13.498;2023-02-03T09:59:03;3.50;;;2.03;;
40807;SDS011;26523;52.504;13.498;2023-02-03T10:01:35;8.77;;;2.53;;
40807;SDS011;26523;52.504;13.498;2023-02-03T10:06:43;4.25;;;2.03;;
40807;SDS011;26523;52.504;13.498;2023-02-03T10:15:02;5.55;;;2.00;;
40807;SDS011;26523;52.504;13.498;2023-02-03T10:17:51;3.10;;;1.70;;
40807;SDS011;26523;52.504;13.498;2023-02-03T10:20:24;5.28;;;1.88;;
40807;SDS011;26523;52.504;13.498;2023-02-03T10:23:08;3.97;;;1.95;;
40807;SDS011;26523;52.504;13.498;2023-02-03T10:25:51;3.78;;;1.85;;
40807;SDS011;26523;52.504;13.498;2023-02-03T10:28:20;3.25;;;1.60;;
40807;SDS011;26523;52.504;13.498;2023-02-03T10:30:57;6.50;;;1.40;;
40807;SDS011;26523;52.504;13.498;2023-02-03T10:38:23;3.25;;;1.40;;
40807;SDS011;26523;52.504;13.498;2023-02-03T10:40:59;2.63;;;1.52;;
40807;SDS011;26523;52.504;13.498;2023-02-03T10:43:25;2.00;;;1.00;;
40807;SDS011;26523;52.504;13.498;2023-02-03T10:46:11;5.20;;;1.55;;
40807;SDS011;26523;52.504;13.498;2023-02-03T10:48:40;3.10;;;1.15;;
40807;SDS011;26523;52.504;13.498;2023-02-03T10:51:24;4.80;;;1.58;;
40807;SDS011;26523;52.504;13.498;2023-02-03T10:53:52;1.45;;;0.45;;
40807;SDS011;26523;52.504;13.498;2023-02-03T10:56:19;11.57;;;0.80;;
40807;SDS011;26523;52.504;13.498;2023-02-03T10:58:56;2.22;;;0.47;;
40807;SDS011;26523;52.504;13.498;2023-02-03T11:01:25;3.15;;;0.52;;
40807;SDS011;26523;52.504;13.498;2023-02-03T11:04:24;3.03;;;1.00;;
40807;SDS011;26523;52.504;13.498;2023-02-03T11:06:55;6.10;;;1.00;;
40807;SDS011;26523;52.504;13.498;2023-02-03T11:09:33;1.50;;;0.60;;
40807;SDS011;26523;52.504;13.498;2023-02-03T11:12:13;1.77;;;0.73;;
40807;SDS011;26523;52.504;13.498;2023-02-03T11:14:50;4.20;;;1.75;;
40807;SDS011;26523;52.504;13.498;2023-02-03T11:17:22;9.23;;;1.50;;
40807;SDS011;26523;52.504;13.498;2023-02-03T11:19:53;8.32;;;1.73;;
40807;SDS011;26523;52.504;13.498;2023-02-03T11:22:26;4.80;;;1.67;;
40807;SDS011;26523;52.504;13.498;2023-02-03T11:24:59;5.47;;;1.10;;
40807;SDS011;26523;52.504;13.498;2023-02-03T11:27:31;4.60;;;0.85;;
40807;SDS011;26523;52.504;13.498;2023-02-03T11:32:46;5.20;;;1.00;;
40807;SDS011;26523;52.504;13.498;2023-02-03T11:35:17;7.05;;;1.55;;
40807;SDS011;26523;52.504;13.498;2023-02-03T11:37:46;3.88;;;1.40;;
40807;SDS011;26523;52.504;13.498;2023-02-03T11:42:39;7.63;;;1.27;;
40807;SDS011;26523;52.504;13.498;2023-02-03T11:50:29;12.15;;;1.60;;
40807;SDS011;26523;52.504;13.498;2023-02-03T12:04:40;11.77;;;2.50;;
40807;SDS011;26523;52.504;13.498;2023-02-03T12:12:36;8.30;;;1.67;;
40807;SDS011;26523;52.504;13.498;2023-02-03T12:21:39;6.63;;;1.58;;
40807;SDS011;26523;52.504;13.498;2023-02-03T12:23:54;5.28;;;1.33;;
40807;SDS011;26523;52.504;13.498;2023-02-03T12:29:31;21.08;;;2.63;;
40807;SDS011;26523;52.504;13.498;2023-02-03T12:32:11;7.25;;;1.63;;
40807;SDS011;26523;52.504;13.498;2023-02-03T12:37:45;13.55;;;2.92;;
40807;SDS011;26523;52.504;13.498;2023-02-03T12:40:55;10.40;;;2.25;;
40807;SDS011;26523;52.504;13.498;2023-02-03T12:43:26;11.90;;;1.70;;
40807;SDS011;26523;52.504;13.498;2023-02-03T12:46:17;18.75;;;2.05;;
40807;SDS011;26523;52.504;13.498;2023-02-03T12:48:58;16.38;;;2.05;;
40807;SDS011;26523;52.504;13.498;2023-02-03T12:52:04;12.95;;;2.28;;
40807;SDS011;26523;52.504;13.498;2023-02-03T12:54:55;12.93;;;2.53;;
40807;SDS011;26523;52.504;13.498;2023-02-03T12:57:31;11.77;;;1.90;;
40807;SDS011;26523;52.504;13.498;2023-02-03T13:02:46;6.93;;;1.25;;
40807;SDS011;26523;52.504;13.498;2023-02-03T13:05:25;2.22;;;0.80;;
40807;SDS011;26523;52.504;13.498;2023-02-03T13:08:00;5.15;;;1.13;;
40807;SDS011;26523;52.504;13.498;2023-02-03T13:10:37;3.72;;;1.70;;
40807;SDS011;26523;52.504;13.498;2023-02-03T13:13:13;6.53;;;1.08;;
40807;SDS011;26523;52.504;13.498;2023-02-03T13:15:43;8.90;;;1.55;;
40807;SDS011;26523;52.504;13.498;2023-02-03T13:18:16;4.20;;;1.13;;
40807;SDS011;26523;52.504;13.498;2023-02-03T13:20:52;10.00;;;1.85;;
40807;SDS011;26523;52.504;13.498;2023-02-03T13:23:18;1.75;;;0.60;;
40807;SDS011;26523;52.504;13.498;2023-02-03T13:31:30;3.95;;;1.45;;
40807;SDS011;26523;52.504;13.498;2023-02-03T13:42:39;10.43;;;2.08;;
40807;SDS011;26523;52.504;13.498;2023-02-03T13:48:05;19.40;;;1.80;;
40807;SDS011;26523;52.504;13.498;2023-02-03T13:50:34;10.43;;;1.45;;
40807;SDS011;26523;52.504;13.498;2023-02-03T13:53:02;7.28;;;1.25;;
40807;SDS011;26523;52.504;13.498;2023-02-03T13:55:40;4.05;;;1.55;;
40807;SDS011;26523;52.504;13.498;2023-02-03T13:58:27;3.00;;;1.13;;
40807;SDS011;26523;52.504;13.498;2023-02-03T14:05:52;6.28;;;1.52;;
40807;SDS011;26523;52.504;13.498;2023-02-03T14:24:22;8.00;;;1.58;;
40807;SDS011;26523;52.504;13.498;2023-02-03T14:26:54;6.22;;;1.52;;
40807;SDS011;26523;52.504;13.498;2023-02-03T14:29:29;10.85;;;1.95;;
40807;SDS011;26523;52.504;13.498;2023-02-03T14:31:59;8.70;;;1.73;;
40807;SDS011;26523;52.504;13.498;2023-02-03T14:36:58;12.82;;;2.72;;
40807;SDS011;26523;52.504;13.498;2023-02-03T14:39:41;8.77;;;1.33;;
40807;SDS011;26523;52.504;13.498;2023-02-03T14:59:23;15.52;;;2.72;;
40807;SDS011;26523;52.504;13.498;2023-02-03T15:04:27;9.75;;;2.42;;
40807;SDS011;26523;52.504;13.498;2023-02-03T15:06:53;18.75;;;1.90;;
40807;SDS011;26523;52.504;13.498;2023-02-03T15:11:53;14.88;;;2.63;;
40807;SDS011;26523;52.504;13.498;2023-02-03T15:16:53;13.73;;;2.45;;
40807;SDS011;26523;52.504;13.498;2023-02-03T15:19:37;11.82;;;2.15;;
40807;SDS011;26523;52.504;13.498;2023-02-03T15:24:43;15.10;;;2.20;;
40807;SDS011;26523;52.504;13.498;2023-02-03T15:27:19;16.23;;;2.50;;
40807;SDS011;26523;52.504;13.498;2023-02-03T15:29:55;19.90;;;1.92;;
40807;SDS011;26523;52.504;13.498;2023-02-03T15:32:24;14.93;;;2.45;;
40807;SDS011;26523;52.504;13.498;2023-02-03T15:35:00;11.07;;;2.47;;
40807;SDS011;26523;52.504;13.498;2023-02-03T15:37:30;13.43;;;1.70;;
40807;SDS011;26523;52.504;13.498;2023-02-03T15:40:01;7.78;;;1.52;;
40807;SDS011;26523;52.504;13.498;2023-02-03T15:45:28;10.18;;;1.10;;
40807;SDS011;26523;52.504;13.498;2023-02-03T15:50:41;12.98;;;2.45;;
40807;SDS011;26523;52.504;13.498;2023-02-03T15:53:24;10.70;;;2.15;;
40807;SDS011;26523;52.504;13.498;2023-02-03T15:55:55;11.65;;;2.63;;
40807;SDS011;26523;52.504;13.498;2023-02-03T15:58:24;13.13;;;2.35;;
40807;SDS011;26523;52.504;13.498;2023-02-03T16:00:52;20.30;;;1.77;;
40807;SDS011;26523;52.504;13.498;2023-02-03T16:03:28;10.38;;;1.35;;
40807;SDS011;26523;52.504;13.498;2023-02-03T16:06:06;8.57;;;1.63;;
40807;SDS011;26523;52.504;13.498;2023-02-03T16:08:43;16.92;;;2.30;;
40807;SDS011;26523;52.504;13.498;2023-02-03T16:11:27;13.18;;;1.80;;
40807;SDS011;26523;52.504;13.498;2023-02-03T16:13:56;8.90;;;1.73;;
40807;SDS011;26523;52.504;13.498;2023-02-03T16:16:25;11.07;;;2.65;;
40807;SDS011;26523;52.504;13.498;2023-02-03T16:18:55;14.45;;;2.40;;
40807;SDS011;26523;52.504;13.498;2023-02-03T16:21:36;9.75;;;1.85;;
40807;SDS011;26523;52.504;13.498;2023-02-03T16:24:34;12.88;;;1.70;;
40807;SDS011;26523;52.504;13.498;2023-02-03T16:29:49;20.20;;;2.72;;
40807;SDS011;26523;52.504;13.498;2023-02-03T16:35:18;7.40;;;1.35;;
40807;SDS011;26523;52.504;13.498;2023-02-03T16:38:06;6.78;;;1.88;;
40807;SDS011;26523;52.504;13.498;2023-02-03T16:40:55;13.82;;;2.38;;
40807;SDS011;26523;52.504;13.498;2023-02-03T16:43:39;10.48;;;3.30;;
40807;SDS011;26523;52.504;13.498;2023-02-03T16:46:23;13.40;;;2.03;;
40807;SDS011;26523;52.504;13.498;2023-02-03T16:49:07;15.15;;;1.75;;
40807;SDS011;26523;52.504;13.498;2023-02-03T16:51:51;16.30;;;2.57;;
40807;SDS011;26523;52.504;13.498;2023-02-03T16:54:17;10.13;;;1.80;;
40807;SDS011;26523;52.504;13.498;2023-02-03T16:56:43;12.80;;;3.42;;
40807;SDS011;26523;52.504;13.498;2023-02-03T16:59:09;13.30;;;4.20;;
40807;SDS011;26523;52.504;13.498;2023-02-03T17:01:35;15.85;;;1.98;;
40807;SDS011;26523;52.504;13.498;2023-02-03T17:04:01;13.98;;;2.13;;
40807;SDS011;26523;52.504;13.498;2023-02-03T17:06:27;13.85;;;2.35;;
40807;SDS011;26523;52.504;13.498;2023-02-03T17:08:53;15.77;;;2.67;;
40807;SDS011;26523;52.504;13.498;2023-02-03T17:11:20;10.38;;;1.73;;
40807;SDS011;26523;52.504;13.498;2023-02-03T17:13:50;19.02;;;2.38;;
40807;SDS011;26523;52.504;13.498;2023-02-03T17:16:17;12.55;;;2.30;;
40807;SDS011;26523;52.504;13.498;2023-02-03T17:18:44;7.43;;;2.33;;
40807;SDS011;26523;52.504;13.498;2023-02-03T17:21:14;18.55;;;2.10;;
40807;SDS011;26523;52.504;13.498;2023-02-03T17:23:49;13.77;;;1.65;;
40807;SDS011;26523;52.504;13.498;2023-02-03T17:26:15;10.70;;;1.58;;
40807;SDS011;26523;52.504;13.498;2023-02-03T17:28:41;22.60;;;2.30;;